M/V Yankee Clipper — WDC3923 — position and weather

sailwx.info

Track history (hours):
 
Tides and Currents Weather Stations Pressure Air Temp Water Temp Dewpoint Dewpoint Depression Visibility Wind Speed Wind Dir Waves Ship Positions

M/V Yankee Clipper

Owner: M/V Yankee Clipper, Inc., Seattle, WA. More information available from US FCC via Universal Licensing System and Coast Guard Vessel Documentation Center.

Last reported at 2016-Aug-24 00:33 UTC. Time now 2016-Aug-24 01:37 UTC.
Position N 47°40' W 122°23'.

Length 27 m; draft 4 m.

Type: Fishing. MMSI: 367016340.

Date/timePositionNaut miles runAvg speedWind from/ knotsBaromVisibWave heightAir tempDewpointWater temp
2016-Aug-24 00:33N 47°40' W 122°23'0 0.0
2016-Aug-23 23:33N 47°40' W 122°23'0 0.0
2016-Aug-23 22:33N 47°40' W 122°23'1 0.6
2016-Aug-23 21:33N 47°40' W 122°23'0 0.3
2016-Aug-23 20:33N 47°40' W 122°24'7 6.8
2016-Aug-23 19:33N 47°47' W 122°26'8 8.2
2016-Aug-23 18:33N 47°54' W 122°30'8 7.8
2016-Aug-23 17:33N 48°01' W 122°37'8 8.2
2016-Aug-23 16:31N 48°08' W 122°43'9 9.1
2016-Aug-23 15:33N 48°16' W 122°48'9 8.9
2016-Aug-23 14:33N 48°25' W 122°45'8 8.1
2016-Aug-23 13:33N 48°33' W 122°45'8 7.8
2016-Aug-23 12:33N 48°41' W 122°44'8 8.4
2016-Aug-23 11:33N 48°47' W 122°53'10 9.6
2016-Aug-23 10:33N 48°52' W 123°05'10 9.8
2016-Aug-23 09:33N 48°58' W 123°16'10 9.7
2016-Aug-23 08:33N 49°04' W 123°28'9 9.2
2016-Aug-23 07:33N 49°11' W 123°38'9 9.4
2016-Aug-23 06:33N 49°16' W 123°50'10 9.7
2016-Aug-23 05:33N 49°21' W 124°03'9 9.2
2016-Aug-23 04:33N 49°25' W 124°15'8 8.4
2016-Aug-23 03:33N 49°30' W 124°26'9 9.1
2016-Aug-23 02:33N 49°36' W 124°36'9 9.0
2016-Aug-23 01:33N 49°43' W 124°46'9 9.0
2016-Aug-23 00:33N 49°49' W 124°56'9 8.7
2016-Aug-22 23:33N 49°55' W 125°05'10 9.8
2016-Aug-22 22:33N 50°03' W 125°14'9 9.3
2016-Aug-22 21:33N 50°11' W 125°22'8 8.2
2016-Aug-22 20:33N 50°19' W 125°25'10 6.9
2016-Aug-22 19:10N 50°22' W 125°39'26 6.7
2016-Aug-22 15:13N 50°29' W 126°19'7 8.6
2016-Aug-22 14:22N 50°30' W 126°30'9 7.8
2016-Aug-22 13:13N 50°35' W 126°43'6 9.4
2016-Aug-22 12:32N 50°40' W 126°49'9 9.2
2016-Aug-22 11:33N 50°45' W 127°01'9 8.9
2016-Aug-22 10:33N 50°50' W 127°13'9 9.3
2016-Aug-22 09:33N 50°55' W 127°25'9 9.1
2016-Aug-22 08:33N 51°01' W 127°36'9 8.7
2016-Aug-22 07:33N 51°07' W 127°46'9 8.8
2016-Aug-22 06:33N 51°15' W 127°51'1211.4
2016-Aug-22 05:32N 51°27' W 127°51'  
Track history (hours):
 
Tides and Currents Weather Stations Pressure Air Temp Water Temp Dewpoint Dewpoint Depression Visibility Wind Speed Wind Dir Waves Ship Positions

M/V Yankee Clipper

Owner: M/V Yankee Clipper, Inc., Seattle, WA. More information available from US FCC via Universal Licensing System and Coast Guard Vessel Documentation Center.

Last reported at 2016-Aug-24 00:33 UTC. Time now 2016-Aug-24 01:37 UTC.
Position N 47°40' W 122°23'.

Length 27 m; draft 4 m.

Type: Fishing. MMSI: 367016340.

Date/timePositionNaut miles runAvg speedWind from/ knotsBaromVisibWave heightAir tempDewpointWater temp
2016-Aug-24 00:33N 47°40' W 122°23'0 0.0
2016-Aug-23 23:33N 47°40' W 122°23'0 0.0
2016-Aug-23 22:33N 47°40' W 122°23'1 0.6
2016-Aug-23 21:33N 47°40' W 122°23'0 0.3
2016-Aug-23 20:33N 47°40' W 122°24'7 6.8
2016-Aug-23 19:33N 47°47' W 122°26'8 8.2
2016-Aug-23 18:33N 47°54' W 122°30'8 7.8
2016-Aug-23 17:33N 48°01' W 122°37'8 8.2
2016-Aug-23 16:31N 48°08' W 122°43'9 9.1
2016-Aug-23 15:33N 48°16' W 122°48'9 8.9
2016-Aug-23 14:33N 48°25' W 122°45'8 8.1
2016-Aug-23 13:33N 48°33' W 122°45'8 7.8
2016-Aug-23 12:33N 48°41' W 122°44'8 8.4
2016-Aug-23 11:33N 48°47' W 122°53'10 9.6
2016-Aug-23 10:33N 48°52' W 123°05'10 9.8
2016-Aug-23 09:33N 48°58' W 123°16'10 9.7
2016-Aug-23 08:33N 49°04' W 123°28'9 9.2
2016-Aug-23 07:33N 49°11' W 123°38'9 9.4
2016-Aug-23 06:33N 49°16' W 123°50'10 9.7
2016-Aug-23 05:33N 49°21' W 124°03'9 9.2
2016-Aug-23 04:33N 49°25' W 124°15'8 8.4
2016-Aug-23 03:33N 49°30' W 124°26'9 9.1
2016-Aug-23 02:33N 49°36' W 124°36'9 9.0
2016-Aug-23 01:33N 49°43' W 124°46'9 9.0
2016-Aug-23 00:33N 49°49' W 124°56'9 8.7
2016-Aug-22 23:33N 49°55' W 125°05'10 9.8
2016-Aug-22 22:33N 50°03' W 125°14'9 9.3
2016-Aug-22 21:33N 50°11' W 125°22'8 8.2
2016-Aug-22 20:33N 50°19' W 125°25'10 6.9
2016-Aug-22 19:10N 50°22' W 125°39'26 6.7
2016-Aug-22 15:13N 50°29' W 126°19'7 8.6
2016-Aug-22 14:22N 50°30' W 126°30'9 7.8
2016-Aug-22 13:13N 50°35' W 126°43'6 9.4
2016-Aug-22 12:32N 50°40' W 126°49'9 9.2
2016-Aug-22 11:33N 50°45' W 127°01'9 8.9
2016-Aug-22 10:33N 50°50' W 127°13'9 9.3
2016-Aug-22 09:33N 50°55' W 127°25'9 9.1
2016-Aug-22 08:33N 51°01' W 127°36'9 8.7
2016-Aug-22 07:33N 51°07' W 127°46'9 8.8
2016-Aug-22 06:33N 51°15' W 127°51'1211.4
2016-Aug-22 05:32N 51°27' W 127°51'  

Dump ship's entire track history